createdAt,value
2018-05-18T00:01:05.427Z,65.00
2018-05-18T00:03:34.574Z,64.90
2018-05-18T00:06:03.623Z,65.70
2018-05-18T00:08:33.310Z,65.90
2018-05-18T00:11:02.358Z,65.00
2018-05-18T00:13:30.513Z,65.70
2018-05-18T00:15:59.463Z,65.20
2018-05-18T00:18:27.899Z,65.90
2018-05-18T00:20:56.079Z,66.40
2018-05-18T00:23:24.299Z,66.20
2018-05-18T00:25:52.884Z,65.60
2018-05-18T00:28:21.166Z,66.20
2018-05-18T00:30:50.271Z,66.10
2018-05-18T00:33:19.402Z,65.40
2018-05-18T00:35:47.995Z,67.20
2018-05-18T00:38:17.865Z,66.40
2018-05-18T00:40:46.054Z,66.40
2018-05-18T00:43:15.283Z,66.20
2018-05-18T00:45:43.455Z,65.70
2018-05-18T00:48:12.086Z,67.00
2018-05-18T00:50:41.055Z,68.30
2018-05-18T00:53:10.224Z,67.70
2018-05-18T00:55:42.679Z,65.90
2018-05-18T00:58:11.345Z,65.70
2018-05-18T01:00:39.505Z,64.90
2018-05-18T01:03:08.051Z,65.70
2018-05-18T01:05:36.502Z,65.40
2018-05-18T01:08:05.237Z,65.50
2018-05-18T01:10:33.650Z,66.70
2018-05-18T01:13:02.254Z,66.60
2018-05-18T01:15:30.882Z,64.80
2018-05-18T01:18:00.178Z,66.10
2018-05-18T01:20:28.597Z,66.10
2018-05-18T01:22:56.982Z,65.60
2018-05-18T01:25:25.439Z,66.60
2018-05-18T01:27:54.474Z,66.50
2018-05-18T01:30:25.415Z,66.50
2018-05-18T01:32:54.556Z,66.40
2018-05-18T01:35:22.994Z,67.70
2018-05-18T01:37:51.130Z,65.90
2018-05-18T01:40:19.358Z,66.40
2018-05-18T01:42:47.939Z,66.10
2018-05-18T01:45:16.986Z,65.70
2018-05-18T01:47:45.163Z,65.60
2018-05-18T01:50:14.070Z,65.60
2018-05-18T01:52:42.733Z,64.70
2018-05-18T01:55:10.917Z,64.40
2018-05-18T01:57:39.511Z,65.10
2018-05-18T02:00:08.083Z,65.90
2018-05-18T02:02:37.188Z,65.90
2018-05-18T02:05:05.611Z,64.80
2018-05-18T02:07:34.202Z,65.60
2018-05-18T02:10:02.758Z,66.30
2018-05-18T02:12:30.944Z,66.20
2018-05-18T02:14:59.816Z,65.60
2018-05-18T02:17:28.006Z,66.30
2018-05-18T02:19:56.231Z,65.90
2018-05-18T02:22:27.276Z,65.70
2018-05-18T02:24:55.417Z,64.20
2018-05-18T02:27:24.116Z,64.90
2018-05-18T02:29:52.274Z,63.60
2018-05-18T02:32:20.450Z,64.20
2018-05-18T02:34:49.877Z,64.70
2018-05-18T02:37:19.880Z,65.00
2018-05-18T02:39:49.867Z,65.50
2018-05-18T02:42:18.076Z,65.40
2018-05-18T02:44:46.720Z,63.50
2018-05-18T02:47:15.755Z,62.70
2018-05-18T02:49:43.938Z,62.20
2018-05-18T02:52:12.810Z,62.20
2018-05-18T02:54:41.646Z,63.00
2018-05-18T02:57:10.185Z,62.80
2018-05-18T02:59:38.606Z,63.40
2018-05-18T03:02:07.131Z,62.60
2018-05-18T03:04:35.761Z,62.30
2018-05-18T03:07:03.914Z,63.40
2018-05-18T03:09:33.012Z,63.10
2018-05-18T03:12:01.720Z,63.90
2018-05-18T03:14:30.177Z,63.50
2018-05-18T03:16:58.598Z,62.60
2018-05-18T03:19:27.229Z,63.50
2018-05-18T03:21:56.270Z,63.40
2018-05-18T03:24:25.742Z,62.80
2018-05-18T03:26:54.754Z,63.50
2018-05-18T03:29:23.199Z,62.20
2018-05-18T03:31:52.364Z,62.60
2018-05-18T03:34:20.785Z,63.40
2018-05-18T03:36:49.415Z,64.00
2018-05-18T03:39:17.836Z,62.40
2018-05-18T03:41:46.871Z,62.10
2018-05-18T03:44:16.871Z,62.90
2018-05-18T03:46:45.698Z,61.40
2018-05-18T03:49:14.863Z,62.20
2018-05-18T03:51:43.370Z,61.50
2018-05-18T03:54:12.019Z,62.20
2018-05-18T03:56:41.171Z,62.20
2018-05-18T03:59:10.143Z,62.80
2018-05-18T04:01:52.726Z,64.50
2018-05-18T04:04:33.682Z,64.50
2018-05-18T04:07:14.302Z,62.60
2018-05-18T04:09:42.731Z,62.50
2018-05-18T04:12:11.180Z,62.90
2018-05-18T04:14:39.774Z,62.80
2018-05-18T04:17:08.199Z,63.50
2018-05-18T04:19:37.070Z,64.00
2018-05-18T04:22:05.250Z,64.10
2018-05-18T04:24:33.770Z,64.90
2018-05-18T04:27:02.946Z,64.60
2018-05-18T04:29:31.906Z,64.00
2018-05-18T04:32:01.269Z,63.40
2018-05-18T04:34:29.896Z,63.10
2018-05-18T04:36:58.041Z,63.80
2018-05-18T04:39:27.400Z,63.60
2018-05-18T04:41:55.995Z,63.50
2018-05-18T04:44:24.146Z,63.60
2018-05-18T04:46:53.347Z,62.80
2018-05-18T04:49:21.954Z,63.40
2018-05-18T04:51:50.287Z,62.10
2018-05-18T04:54:18.819Z,64.50
2018-05-18T04:56:48.912Z,62.20
2018-05-18T04:59:17.751Z,62.20
2018-05-18T05:01:46.904Z,62.20
2018-05-18T05:04:15.546Z,64.00
2018-05-18T05:06:44.177Z,62.50
2018-05-18T05:09:13.537Z,61.50
2018-05-18T05:11:42.168Z,60.90
2018-05-18T05:14:11.202Z,60.60
2018-05-18T05:16:39.811Z,61.00
2018-05-18T05:19:08.987Z,59.40
2018-05-18T05:21:38.045Z,59.30
2018-05-18T05:24:06.430Z,60.30
2018-05-18T05:26:35.829Z,60.60
2018-05-18T05:29:04.095Z,60.50
2018-05-18T05:31:32.678Z,58.80
2018-05-18T05:34:00.822Z,59.40
2018-05-18T05:36:29.001Z,59.10
2018-05-18T05:38:57.918Z,59.60
2018-05-18T05:41:26.098Z,59.00
2018-05-18T05:43:55.810Z,59.30
2018-05-18T05:46:25.705Z,59.00
2018-05-18T05:48:54.543Z,58.40
2018-05-18T05:51:23.800Z,59.10
2018-05-18T05:53:52.431Z,59.10
2018-05-18T05:56:21.061Z,59.20
2018-05-18T05:58:50.203Z,58.60
2018-05-18T06:01:19.234Z,58.70
2018-05-18T06:03:47.646Z,58.20
2018-05-18T06:06:15.827Z,58.70
2018-05-18T06:08:44.098Z,58.50
2018-05-18T06:11:12.529Z,58.70
2018-05-18T06:13:40.949Z,59.40
2018-05-18T06:16:10.937Z,59.40
2018-05-18T06:18:39.128Z,59.00
2018-05-18T06:21:08.290Z,57.80
2018-05-18T06:23:38.011Z,58.90
2018-05-18T06:26:06.606Z,57.00
2018-05-18T06:28:35.027Z,57.40
2018-05-18T06:31:03.553Z,56.60
2018-05-18T06:33:31.975Z,57.30
2018-05-18T06:36:00.397Z,56.40
2018-05-18T06:38:28.817Z,57.10
2018-05-18T06:40:56.974Z,54.80
2018-05-18T06:43:25.633Z,55.30
2018-05-18T06:45:53.779Z,54.80
2018-05-18T06:48:23.127Z,54.60
2018-05-18T06:50:52.175Z,54.30
2018-05-18T06:53:21.108Z,54.30
2018-05-18T06:55:49.946Z,54.60
2018-05-18T06:58:18.871Z,56.10
2018-05-18T07:00:47.729Z,54.00
2018-05-18T07:03:16.892Z,54.40
2018-05-18T07:05:46.038Z,54.60
2018-05-18T07:08:15.197Z,55.20
2018-05-18T07:10:44.023Z,55.40
2018-05-18T07:13:12.206Z,54.60
2018-05-18T07:15:40.878Z,55.40
2018-05-18T07:18:09.022Z,55.10
2018-05-18T07:20:38.230Z,54.60
2018-05-18T07:23:07.401Z,54.50
2018-05-18T07:25:35.920Z,55.10
2018-05-18T07:28:04.445Z,54.00
2018-05-18T07:30:33.042Z,54.50
2018-05-18T07:33:01.235Z,54.60
2018-05-18T07:35:29.918Z,53.90
2018-05-18T07:37:58.071Z,54.40
2018-05-18T07:40:26.656Z,54.40
2018-05-18T07:42:55.591Z,54.50
2018-05-18T07:45:24.022Z,55.30
2018-05-18T07:47:54.009Z,55.70
2018-05-18T07:50:22.848Z,55.70
2018-05-18T07:52:51.989Z,56.80
2018-05-18T07:55:20.632Z,55.20
2018-05-18T07:57:49.014Z,54.80
2018-05-18T08:00:18.086Z,55.50
2018-05-18T08:02:46.940Z,55.60
2018-05-18T08:05:16.079Z,56.00
2018-05-18T08:07:44.923Z,54.40
2018-05-18T08:10:13.314Z,54.00
2018-05-18T08:12:41.774Z,53.90
2018-05-18T08:15:10.211Z,54.50
2018-05-18T08:17:38.567Z,54.30
2018-05-18T08:20:08.814Z,54.90
2018-05-18T08:22:36.990Z,54.90
2018-05-18T08:25:05.415Z,53.30
2018-05-18T08:27:34.003Z,53.00
2018-05-18T08:30:02.115Z,52.40
2018-05-18T08:32:30.595Z,54.30
2018-05-18T08:34:58.774Z,53.50
2018-05-18T08:37:26.983Z,52.10
2018-05-18T08:39:55.556Z,52.50
2018-05-18T08:42:23.967Z,52.30
2018-05-18T08:44:52.712Z,51.90
2018-05-18T08:47:20.991Z,52.60
2018-05-18T08:49:49.179Z,53.00
2018-05-18T08:52:17.767Z,53.50
2018-05-18T08:54:45.919Z,52.40
2018-05-18T08:57:14.910Z,52.50
2018-05-18T08:59:43.518Z,51.80
2018-05-18T09:02:12.392Z,51.80
2018-05-18T09:04:40.918Z,53.10
2018-05-18T09:07:09.746Z,52.60
2018-05-18T09:09:38.247Z,53.30
2018-05-18T09:12:06.704Z,52.90
2018-05-18T09:14:35.635Z,51.80
2018-05-18T09:17:03.817Z,51.70
2018-05-18T09:19:32.910Z,52.20
2018-05-18T09:22:01.130Z,52.80
2018-05-18T09:24:30.367Z,51.10
2018-05-18T09:26:58.902Z,51.60
2018-05-18T09:29:27.050Z,51.60
2018-05-18T09:31:55.537Z,52.00
2018-05-18T09:34:25.408Z,51.80
2018-05-18T09:36:53.840Z,54.10
2018-05-18T09:39:22.053Z,54.20
2018-05-18T09:41:50.878Z,53.80
2018-05-18T09:44:19.106Z,53.50
2018-05-18T09:46:47.249Z,51.60
2018-05-18T09:49:16.455Z,52.20
2018-05-18T09:51:45.099Z,51.90
2018-05-18T09:54:13.640Z,50.70
2018-05-18T09:56:41.790Z,51.30
2018-05-18T09:59:10.870Z,51.40
2018-05-18T10:01:39.847Z,52.90
2018-05-18T10:04:09.817Z,52.10
2018-05-18T10:06:38.654Z,50.70
2018-05-18T10:09:07.902Z,50.50
2018-05-18T10:11:36.958Z,51.00
2018-05-18T10:14:05.138Z,50.70
2018-05-18T10:16:34.324Z,51.60
2018-05-18T10:19:04.312Z,50.10
2018-05-18T10:21:33.047Z,49.20
2018-05-18T10:24:01.190Z,49.20
2018-05-18T10:26:30.922Z,49.80
2018-05-18T10:28:59.354Z,49.70
2018-05-18T10:31:27.879Z,50.00
2018-05-18T10:33:56.915Z,48.60
2018-05-18T10:36:27.021Z,50.60
2018-05-18T10:38:55.847Z,51.30
2018-05-18T10:41:25.103Z,51.20
2018-05-18T10:43:54.478Z,51.80
2018-05-18T10:46:23.008Z,50.70
2018-05-18T10:48:51.634Z,51.30
2018-05-18T10:51:20.892Z,50.60
2018-05-18T10:53:50.878Z,50.70
2018-05-18T10:56:19.055Z,51.80
2018-05-18T10:58:47.243Z,49.90
2018-05-18T11:01:16.344Z,49.50
2018-05-18T11:03:44.980Z,49.20
2018-05-18T11:06:13.575Z,49.30
2018-05-18T11:08:42.345Z,49.30
2018-05-18T11:11:10.767Z,48.90
2018-05-18T11:13:39.397Z,49.80
2018-05-18T11:16:07.922Z,50.90
2018-05-18T11:18:36.074Z,51.20
2018-05-18T11:21:05.078Z,51.40
2018-05-18T11:23:34.219Z,49.20
2018-05-18T11:26:04.103Z,48.00
2018-05-18T11:28:33.255Z,48.00
2018-05-18T11:31:01.688Z,47.90
2018-05-18T11:33:30.722Z,46.80
2018-05-18T11:35:59.874Z,47.00
2018-05-18T11:38:28.867Z,46.10
2018-05-18T11:40:57.806Z,47.70
2018-05-18T11:43:26.255Z,46.60
2018-05-18T11:45:54.826Z,46.50
2018-05-18T11:48:24.503Z,45.30
2018-05-18T11:50:53.658Z,46.40
2018-05-18T11:53:22.065Z,46.90
2018-05-18T11:55:50.242Z,45.90
2018-05-18T11:58:18.976Z,46.00
2018-05-18T12:00:48.069Z,46.30
2018-05-18T12:03:16.595Z,47.30
2018-05-18T12:05:45.787Z,46.60
2018-05-18T12:08:14.359Z,45.10
2018-05-18T12:10:43.843Z,44.70
2018-05-18T12:13:12.671Z,44.50
2018-05-18T12:15:40.850Z,44.70
2018-05-18T12:18:10.771Z,45.80
2018-05-18T12:20:39.751Z,46.70
2018-05-18T12:23:09.085Z,44.90
2018-05-18T12:25:37.235Z,45.40
2018-05-18T12:28:05.821Z,46.10
2018-05-18T12:30:34.973Z,45.30
2018-05-18T12:33:03.142Z,46.30
2018-05-18T12:35:31.343Z,44.40
2018-05-18T12:38:00.523Z,43.30
2018-05-18T12:40:29.076Z,43.80
2018-05-18T12:42:57.226Z,44.70
2018-05-18T12:45:25.814Z,42.80
2018-05-18T12:47:54.862Z,43.40
2018-05-18T12:50:24.943Z,45.00
2018-05-18T12:52:53.126Z,43.00
2018-05-18T12:55:21.310Z,43.00
2018-05-18T12:57:49.800Z,43.40
2018-05-18T13:00:18.186Z,42.70
2018-05-18T13:02:47.047Z,43.30
2018-05-18T13:05:15.690Z,42.70
2018-05-18T13:07:44.320Z,44.20
2018-05-18T13:10:13.358Z,43.40
2018-05-18T13:12:43.350Z,43.40
2018-05-18T13:15:12.682Z,42.80
2018-05-18T13:17:40.866Z,42.80
2018-05-18T13:20:09.098Z,43.50
2018-05-18T13:22:37.981Z,41.10
2018-05-18T13:25:07.185Z,42.20
2018-05-18T13:27:36.562Z,42.80
2018-05-18T13:30:05.021Z,42.10
2018-05-18T13:32:33.378Z,42.20
2018-05-18T13:35:01.980Z,41.30
2018-05-18T13:37:30.116Z,43.20
2018-05-18T13:39:59.010Z,42.70
2018-05-18T13:42:28.159Z,41.50
2018-05-18T13:44:56.383Z,42.00
2018-05-18T13:47:24.980Z,41.80
2018-05-18T13:49:53.163Z,41.50
2018-05-18T13:52:21.856Z,41.10
2018-05-18T13:54:50.995Z,41.70
2018-05-18T13:57:19.641Z,40.40
2018-05-18T13:59:48.064Z,40.50
2018-05-18T14:02:16.210Z,39.90
2018-05-18T14:04:44.901Z,40.90
2018-05-18T14:07:13.831Z,40.20
2018-05-18T14:09:42.580Z,42.20
2018-05-18T14:12:10.753Z,42.70
2018-05-18T14:14:38.926Z,41.80
2018-05-18T14:17:09.398Z,42.30
2018-05-18T14:19:37.902Z,42.30
2018-05-18T14:22:06.569Z,41.90
2018-05-18T14:24:34.722Z,41.80
2018-05-18T14:27:04.311Z,41.30
2018-05-18T14:29:33.464Z,40.60
2018-05-18T14:32:01.922Z,40.30
2018-05-18T14:34:30.449Z,40.80
2018-05-18T14:36:58.869Z,41.90
2018-05-18T14:39:27.289Z,41.20
2018-05-18T14:41:55.679Z,41.70
2018-05-18T14:44:23.863Z,41.90
2018-05-18T14:46:52.594Z,42.00
2018-05-18T14:49:20.804Z,42.10
2018-05-18T14:51:49.396Z,40.20
2018-05-18T14:54:17.817Z,38.80
2018-05-18T14:56:45.971Z,38.90
2018-05-18T14:59:14.252Z,39.90
2018-05-18T15:01:42.663Z,39.10
2018-05-18T15:04:11.815Z,39.30
2018-05-18T15:06:40.419Z,39.10
2018-05-18T15:09:08.975Z,39.00
2018-05-18T15:11:38.124Z,39.00
2018-05-18T15:14:06.951Z,40.30
2018-05-18T15:16:35.158Z,40.50
2018-05-18T15:19:03.805Z,40.40
2018-05-18T15:21:32.950Z,38.70
2018-05-18T15:24:01.900Z,39.10
2018-05-18T15:26:30.321Z,40.60
2018-05-18T15:28:59.774Z,38.90
2018-05-18T15:31:31.226Z,38.90
2018-05-18T15:34:00.599Z,39.60
2018-05-18T15:36:29.125Z,38.70
2018-05-18T15:38:57.271Z,39.70
2018-05-18T15:41:26.478Z,40.30
2018-05-18T15:43:55.082Z,40.50
2018-05-18T15:46:23.267Z,41.00
2018-05-18T15:48:51.857Z,41.60
2018-05-18T15:51:20.383Z,41.70
2018-05-18T15:53:48.909Z,42.80
2018-05-18T15:56:17.054Z,42.90
2018-05-18T15:58:46.814Z,42.80
2018-05-18T16:01:16.934Z,42.50
2018-05-18T16:03:45.503Z,42.40
2018-05-18T16:06:14.159Z,41.50
2018-05-18T16:08:43.265Z,41.30
2018-05-18T16:11:12.244Z,41.30
2018-05-18T16:13:40.770Z,41.00
2018-05-18T16:16:09.191Z,40.80
2018-05-18T16:18:37.613Z,40.60
2018-05-18T16:21:07.129Z,41.40
2018-05-18T16:23:35.228Z,41.30
2018-05-18T16:26:04.118Z,40.50
2018-05-18T16:28:32.306Z,42.90
2018-05-18T16:31:01.497Z,41.10
2018-05-18T16:33:30.205Z,41.40
2018-05-18T16:35:58.290Z,40.90
2018-05-18T16:38:26.759Z,41.60
2018-05-18T16:40:55.909Z,41.80
2018-05-18T16:43:25.898Z,41.10
2018-05-18T16:45:55.039Z,41.00
2018-05-18T16:48:23.222Z,41.70
2018-05-18T16:50:51.788Z,42.90
2018-05-18T16:53:20.210Z,43.10
2018-05-18T16:55:48.791Z,43.10
2018-05-18T16:58:19.338Z,44.00
2018-05-18T17:00:47.876Z,44.00
2018-05-18T17:03:16.030Z,45.50
2018-05-18T17:05:45.240Z,44.80
2018-05-18T17:08:13.763Z,44.10
2018-05-18T17:10:42.401Z,44.80
2018-05-18T17:13:10.817Z,45.00
2018-05-18T17:15:38.970Z,44.90
2018-05-18T17:18:08.066Z,43.70
2018-05-18T17:20:36.707Z,43.70
2018-05-18T17:23:05.847Z,44.30
2018-05-18T17:25:34.267Z,44.70
2018-05-18T17:28:02.771Z,45.00
2018-05-18T17:30:31.958Z,45.50
2018-05-18T17:33:01.209Z,46.00
2018-05-18T17:35:29.811Z,45.90
2018-05-18T17:37:57.991Z,45.80
2018-05-18T17:40:26.183Z,46.10
2018-05-18T17:42:54.796Z,45.80
2018-05-18T17:45:23.653Z,46.80
2018-05-18T17:47:52.123Z,47.10
2018-05-18T17:50:21.301Z,46.70
2018-05-18T17:52:49.942Z,47.20
2018-05-18T17:55:18.079Z,47.50
2018-05-18T17:57:47.030Z,47.90
2018-05-18T18:00:15.519Z,47.90
2018-05-18T18:02:44.046Z,48.70
2018-05-18T18:05:12.190Z,48.00
2018-05-18T18:07:41.086Z,48.00
2018-05-18T18:10:10.550Z,48.00
2018-05-18T18:12:39.990Z,48.20
2018-05-18T18:15:08.438Z,48.20
2018-05-18T18:17:36.940Z,48.40
2018-05-18T18:20:05.339Z,48.60
2018-05-18T18:22:33.937Z,49.00
2018-05-18T18:25:02.755Z,49.10
2018-05-18T18:27:31.914Z,49.40
2018-05-18T18:30:00.083Z,49.80
2018-05-18T18:32:29.267Z,49.70
2018-05-18T18:34:57.700Z,50.10
2018-05-18T18:37:25.851Z,50.80
2018-05-18T18:39:54.714Z,50.20
2018-05-18T18:42:23.241Z,51.00
2018-05-18T18:44:51.668Z,50.50
2018-05-18T18:47:19.898Z,51.00
2018-05-18T18:49:48.502Z,50.60
2018-05-18T18:52:17.066Z,50.50
2018-05-18T18:54:45.683Z,50.70
2018-05-18T18:57:14.116Z,51.00
2018-05-18T18:59:42.643Z,50.90
2018-05-18T19:02:11.574Z,51.30
2018-05-18T19:04:39.758Z,52.00
2018-05-18T19:07:07.966Z,51.60
2018-05-18T19:09:36.522Z,51.40
2018-05-18T19:12:04.711Z,52.10
2018-05-18T19:14:33.238Z,52.10
2018-05-18T19:17:01.904Z,51.80
2018-05-18T19:19:30.058Z,52.20
2018-05-18T19:21:59.269Z,52.60
2018-05-18T19:24:27.798Z,52.70
2018-05-18T19:26:56.318Z,53.40
2018-05-18T19:29:24.846Z,53.70
2018-05-18T19:31:52.999Z,53.60
2018-05-18T19:34:21.258Z,53.90
2018-05-18T19:36:50.423Z,54.00
2018-05-18T19:39:18.948Z,54.30
2018-05-18T19:41:48.206Z,55.10
2018-05-18T19:44:16.799Z,55.10
2018-05-18T19:46:45.988Z,55.40
2018-05-18T19:49:14.162Z,54.60
2018-05-18T19:51:42.830Z,55.10
2018-05-18T19:54:11.252Z,55.20
2018-05-18T19:56:40.963Z,55.90
2018-05-18T19:59:10.915Z,55.00
2018-05-18T20:01:39.544Z,55.50
2018-05-18T20:04:08.586Z,55.10
2018-05-18T20:06:37.651Z,55.60
2018-05-18T20:09:06.792Z,55.10
2018-05-18T20:11:34.968Z,55.30
2018-05-18T20:14:04.647Z,55.20
2018-05-18T20:16:33.205Z,55.70
2018-05-18T20:19:01.627Z,55.60
2018-05-18T20:21:30.153Z,56.10
2018-05-18T20:23:58.748Z,56.20
2018-05-18T20:26:27.715Z,56.10
2018-05-18T20:28:56.148Z,56.20
2018-05-18T20:31:24.568Z,56.00
2018-05-18T20:33:52.846Z,56.60
2018-05-18T20:36:21.035Z,57.50
2018-05-18T20:38:49.727Z,57.40
2018-05-18T20:41:18.319Z,57.30
2018-05-18T20:43:46.886Z,57.80
2018-05-18T20:46:15.041Z,58.00
2018-05-18T20:48:44.130Z,58.30
2018-05-18T20:51:13.094Z,59.00
2018-05-18T20:53:41.717Z,58.70
2018-05-18T20:56:09.891Z,59.20
2018-05-18T20:58:38.783Z,59.10
2018-05-18T21:01:07.607Z,59.60
2018-05-18T21:03:36.483Z,59.30
2018-05-18T21:06:04.622Z,59.20
2018-05-18T21:08:33.810Z,59.80
2018-05-18T21:11:02.860Z,60.40
2018-05-18T21:13:31.003Z,60.30
2018-05-18T21:16:00.002Z,61.00
2018-05-18T21:18:28.446Z,61.40
2018-05-18T21:20:56.962Z,62.10
2018-05-18T21:23:25.376Z,62.60
2018-05-18T21:25:53.911Z,60.80
2018-05-18T21:28:22.086Z,61.50
2018-05-18T21:30:50.817Z,61.20
2018-05-18T21:33:19.342Z,62.80
2018-05-18T21:35:48.011Z,61.80
2018-05-18T21:38:16.162Z,62.30
2018-05-18T21:40:45.375Z,62.60
2018-05-18T21:43:14.550Z,62.60
2018-05-18T21:45:45.248Z,63.60
2018-05-18T21:48:13.877Z,63.60
2018-05-18T21:50:42.717Z,62.70
2018-05-18T21:53:12.705Z,63.60
2018-05-18T21:55:41.739Z,63.60
2018-05-18T21:58:10.801Z,63.20
2018-05-18T22:00:39.535Z,63.30
2018-05-18T22:03:07.683Z,63.20
2018-05-18T22:05:36.377Z,64.20
2018-05-18T22:08:04.902Z,64.60
2018-05-18T22:10:33.495Z,65.30
2018-05-18T22:13:02.671Z,65.00
2018-05-18T22:15:31.654Z,66.30
2018-05-18T22:18:01.499Z,65.70
2018-05-18T22:20:30.455Z,65.70
2018-05-18T22:22:58.634Z,64.50
2018-05-18T22:25:27.089Z,65.30
2018-05-18T22:27:55.890Z,66.50
2018-05-18T22:30:24.982Z,67.10
2018-05-18T22:32:53.518Z,66.60
2018-05-18T22:35:22.862Z,67.90
2018-05-18T22:37:51.479Z,67.10
2018-05-18T22:40:19.915Z,67.80
2018-05-18T22:42:48.755Z,68.20
2018-05-18T22:45:16.924Z,67.40
2018-05-18T22:47:45.595Z,67.70
2018-05-18T22:50:14.191Z,68.60
2018-05-18T22:52:43.135Z,68.50
2018-05-18T22:55:13.052Z,68.50
2018-05-18T22:57:42.834Z,69.00
2018-05-18T23:00:11.970Z,69.70
2018-05-18T23:02:40.371Z,70.10
2018-05-18T23:05:08.550Z,70.80
2018-05-18T23:07:37.039Z,70.00
2018-05-18T23:10:06.191Z,70.80
2018-05-18T23:12:34.617Z,71.50
2018-05-18T23:15:02.814Z,70.10
2018-05-18T23:17:31.206Z,69.90
2018-05-18T23:20:00.403Z,70.10
2018-05-18T23:22:28.819Z,70.80
2018-05-18T23:24:56.967Z,70.70
2018-05-18T23:27:25.964Z,71.70
2018-05-18T23:29:54.396Z,72.40
2018-05-18T23:32:22.921Z,70.80
2018-05-18T23:34:51.969Z,71.40
2018-05-18T23:37:20.391Z,70.80
2018-05-18T23:39:48.917Z,71.20
2018-05-18T23:42:17.327Z,70.80
2018-05-18T23:44:47.639Z,72.00
2018-05-18T23:47:16.270Z,72.00
2018-05-18T23:49:45.931Z,72.70
2018-05-18T23:52:14.330Z,72.10
2018-05-18T23:54:42.935Z,71.50
2018-05-18T23:57:12.343Z,71.30
2018-05-18T23:59:40.739Z,71.90
